sensor_id;sensor_type;location;lat;lon;timestamp;P1;durP1;ratioP1;P2;durP2;ratioP2
12721;SDS011;6425;50.316;8.114;2023-08-21T00:00:00;12;;;10.8;;
12721;SDS011;6425;50.316;8.114;2023-08-21T00:03:00;12.6;;;11.4;;
12721;SDS011;6425;50.316;8.114;2023-08-21T00:06:00;14.7;;;11.4;;
12721;SDS011;6425;50.316;8.114;2023-08-21T00:09:00;14.7;;;11.4;;
12721;SDS011;6425;50.316;8.114;2023-08-21T00:12:00;14.8;;;11.9;;
12721;SDS011;6425;50.316;8.114;2023-08-21T00:15:00;14.8;;;11.9;;
12721;SDS011;6425;50.316;8.114;2023-08-21T00:18:00;13.6;;;11.8;;
12721;SDS011;6425;50.316;8.114;2023-08-21T00:21:00;12.9;;;11.3;;
12721;SDS011;6425;50.316;8.114;2023-08-21T00:24:00;12.9;;;11.3;;
12721;SDS011;6425;50.316;8.114;2023-08-21T00:27:00;15;;;12.2;;
12721;SDS011;6425;50.316;8.114;2023-08-21T00:30:00;15;;;12.2;;
12721;SDS011;6425;50.316;8.114;2023-08-21T00:33:00;14.3;;;11.1;;
12721;SDS011;6425;50.316;8.114;2023-08-21T00:36:00;13.9;;;12.4;;
12721;SDS011;6425;50.316;8.114;2023-08-21T00:39:00;13.9;;;12.4;;
12721;SDS011;6425;50.316;8.114;2023-08-21T00:42:00;15.6;;;12;;
12721;SDS011;6425;50.316;8.114;2023-08-21T00:45:00;15.6;;;12;;
12721;SDS011;6425;50.316;8.114;2023-08-21T00:48:00;13.9;;;12.4;;
12721;SDS011;6425;50.316;8.114;2023-08-21T00:51:00;15.9;;;12.6;;
12721;SDS011;6425;50.316;8.114;2023-08-21T00:54:00;15.9;;;12.6;;
12721;SDS011;6425;50.316;8.114;2023-08-21T00:57:00;16.9;;;12.1;;
12721;SDS011;6425;50.316;8.114;2023-08-21T01:00:00;16.9;;;12.1;;
12721;SDS011;6425;50.316;8.114;2023-08-21T01:03:00;15.7;;;12.7;;
12721;SDS011;6425;50.316;8.114;2023-08-21T01:06:00;18.3;;;12;;
12721;SDS011;6425;50.316;8.114;2023-08-21T01:09:00;18.3;;;12;;
12721;SDS011;6425;50.316;8.114;2023-08-21T01:12:02;15.4;;;12.3;;
12721;SDS011;6425;50.316;8.114;2023-08-21T01:15:00;15.4;;;12.1;;
12721;SDS011;6425;50.316;8.114;2023-08-21T01:18:00;15.6;;;11.7;;
12721;SDS011;6425;50.316;8.114;2023-08-21T01:21:03;15.2;;;13;;
12721;SDS011;6425;50.316;8.114;2023-08-21T01:24:00;15.2;;;13;;
12721;SDS011;6425;50.316;8.114;2023-08-21T01:27:00;13.8;;;12.4;;
12721;SDS011;6425;50.316;8.114;2023-08-21T01:30:00;15;;;13.5;;
12721;SDS011;6425;50.316;8.114;2023-08-21T01:33:02;15.5;;;13.9;;
12721;SDS011;6425;50.316;8.114;2023-08-21T01:36:00;16.1;;;13.6;;
12721;SDS011;6425;50.316;8.114;2023-08-21T01:39:00;16.1;;;13.6;;
12721;SDS011;6425;50.316;8.114;2023-08-21T01:42:00;19;;;15.2;;
12721;SDS011;6425;50.316;8.114;2023-08-21T01:45:00;16.5;;;13.7;;
12721;SDS011;6425;50.316;8.114;2023-08-21T01:48:00;16.5;;;13.7;;
12721;SDS011;6425;50.316;8.114;2023-08-21T01:51:00;16.1;;;13.9;;
12721;SDS011;6425;50.316;8.114;2023-08-21T01:54:00;16.1;;;13.9;;
12721;SDS011;6425;50.316;8.114;2023-08-21T01:57:00;17.2;;;14.8;;
12721;SDS011;6425;50.316;8.114;2023-08-21T02:00:00;15.1;;;13.2;;
12721;SDS011;6425;50.316;8.114;2023-08-21T02:03:00;15.1;;;13.2;;
12721;SDS011;6425;50.316;8.114;2023-08-21T02:06:00;16.5;;;13.8;;
12721;SDS011;6425;50.316;8.114;2023-08-21T02:09:00;16.5;;;13.8;;
12721;SDS011;6425;50.316;8.114;2023-08-21T02:12:00;17;;;14;;
12721;SDS011;6425;50.316;8.114;2023-08-21T02:15:00;19.3;;;14.5;;
12721;SDS011;6425;50.316;8.114;2023-08-21T02:18:00;19.3;;;14.5;;
12721;SDS011;6425;50.316;8.114;2023-08-21T02:21:00;17.2;;;14;;
12721;SDS011;6425;50.316;8.114;2023-08-21T02:24:00;17.2;;;14;;
12721;SDS011;6425;50.316;8.114;2023-08-21T02:27:00;18.1;;;14.3;;
12721;SDS011;6425;50.316;8.114;2023-08-21T02:30:00;18.6;;;14.4;;
12721;SDS011;6425;50.316;8.114;2023-08-21T02:33:00;18.6;;;14.4;;
12721;SDS011;6425;50.316;8.114;2023-08-21T02:36:00;17.1;;;15.3;;
12721;SDS011;6425;50.316;8.114;2023-08-21T02:39:00;17.1;;;15.3;;
12721;SDS011;6425;50.316;8.114;2023-08-21T02:42:00;23.7;;;18.1;;
12721;SDS011;6425;50.316;8.114;2023-08-21T02:45:00;20.1;;;17.1;;
12721;SDS011;6425;50.316;8.114;2023-08-21T02:48:00;20.1;;;17.1;;
12721;SDS011;6425;50.316;8.114;2023-08-21T02:51:00;18;;;15.2;;
12721;SDS011;6425;50.316;8.114;2023-08-21T02:54:00;18;;;15.2;;
12721;SDS011;6425;50.316;8.114;2023-08-21T02:57:00;19.2;;;15.4;;
12721;SDS011;6425;50.316;8.114;2023-08-21T03:00:00;19.3;;;15.9;;
12721;SDS011;6425;50.316;8.114;2023-08-21T03:03:00;19.3;;;15.9;;
12721;SDS011;6425;50.316;8.114;2023-08-21T03:06:00;19;;;15.8;;
12721;SDS011;6425;50.316;8.114;2023-08-21T03:09:00;19;;;15.8;;
12721;SDS011;6425;50.316;8.114;2023-08-21T03:12:00;24.3;;;18.5;;
12721;SDS011;6425;50.316;8.114;2023-08-21T03:15:00;22;;;17.7;;
12721;SDS011;6425;50.316;8.114;2023-08-21T03:18:00;22;;;17.7;;
12721;SDS011;6425;50.316;8.114;2023-08-21T03:21:00;21.2;;;16.9;;
12721;SDS011;6425;50.316;8.114;2023-08-21T03:24:00;21.2;;;16.9;;
12721;SDS011;6425;50.316;8.114;2023-08-21T03:27:01;22.3;;;18.8;;
12721;SDS011;6425;50.316;8.114;2023-08-21T03:30:00;19.2;;;16.4;;
12721;SDS011;6425;50.316;8.114;2023-08-21T03:33:00;19.2;;;16.4;;
12721;SDS011;6425;50.316;8.114;2023-08-21T03:36:00;19.1;;;16.8;;
12721;SDS011;6425;50.316;8.114;2023-08-21T03:39:00;19.1;;;16.8;;
12721;SDS011;6425;50.316;8.114;2023-08-21T03:42:00;22.8;;;18.3;;
12721;SDS011;6425;50.316;8.114;2023-08-21T03:45:00;20.5;;;17.3;;
12721;SDS011;6425;50.316;8.114;2023-08-21T03:48:00;20.5;;;17.3;;
12721;SDS011;6425;50.316;8.114;2023-08-21T03:51:00;21.6;;;18.7;;
12721;SDS011;6425;50.316;8.114;2023-08-21T03:54:00;21.6;;;18.7;;
12721;SDS011;6425;50.316;8.114;2023-08-21T03:57:00;23.8;;;18.2;;
12721;SDS011;6425;50.316;8.114;2023-08-21T04:00:00;22;;;18.2;;
12721;SDS011;6425;50.316;8.114;2023-08-21T04:03:00;22;;;18.2;;
12721;SDS011;6425;50.316;8.114;2023-08-21T04:06:01;24.4;;;19.1;;
12721;SDS011;6425;50.316;8.114;2023-08-21T04:09:00;24.4;;;19.1;;
12721;SDS011;6425;50.316;8.114;2023-08-21T04:12:00;22.7;;;18.8;;
12721;SDS011;6425;50.316;8.114;2023-08-21T04:15:00;23.8;;;18.2;;
12721;SDS011;6425;50.316;8.114;2023-08-21T04:18:00;23.8;;;18.2;;
12721;SDS011;6425;50.316;8.114;2023-08-21T04:21:00;24.1;;;19.7;;
12721;SDS011;6425;50.316;8.114;2023-08-21T04:24:00;24.1;;;19.7;;
12721;SDS011;6425;50.316;8.114;2023-08-21T04:27:00;25.9;;;21.8;;
12721;SDS011;6425;50.316;8.114;2023-08-21T04:30:00;26;;;21.6;;
12721;SDS011;6425;50.316;8.114;2023-08-21T04:33:00;26;;;21.6;;
12721;SDS011;6425;50.316;8.114;2023-08-21T04:36:00;24.4;;;21.5;;
12721;SDS011;6425;50.316;8.114;2023-08-21T04:39:00;24.4;;;21.5;;
12721;SDS011;6425;50.316;8.114;2023-08-21T04:42:00;25.8;;;20.9;;
12721;SDS011;6425;50.316;8.114;2023-08-21T04:45:00;26;;;21.3;;
12721;SDS011;6425;50.316;8.114;2023-08-21T04:48:00;26;;;21.3;;
12721;SDS011;6425;50.316;8.114;2023-08-21T04:51:00;25;;;20.8;;
12721;SDS011;6425;50.316;8.114;2023-08-21T04:54:00;25;;;20.8;;
12721;SDS011;6425;50.316;8.114;2023-08-21T04:57:00;24;;;20.8;;
12721;SDS011;6425;50.316;8.114;2023-08-21T05:00:00;23.9;;;20.6;;
12721;SDS011;6425;50.316;8.114;2023-08-21T05:03:00;23.9;;;20.6;;
12721;SDS011;6425;50.316;8.114;2023-08-21T05:06:00;24.4;;;20.3;;
12721;SDS011;6425;50.316;8.114;2023-08-21T05:09:00;24.4;;;20.3;;
12721;SDS011;6425;50.316;8.114;2023-08-21T05:12:00;24.5;;;21.2;;
12721;SDS011;6425;50.316;8.114;2023-08-21T05:15:00;25.1;;;19.9;;
12721;SDS011;6425;50.316;8.114;2023-08-21T05:18:00;25.1;;;19.9;;
12721;SDS011;6425;50.316;8.114;2023-08-21T05:21:00;24.8;;;22.1;;
12721;SDS011;6425;50.316;8.114;2023-08-21T05:24:00;24.8;;;22.1;;
12721;SDS011;6425;50.316;8.114;2023-08-21T05:27:00;26.5;;;20.3;;
12721;SDS011;6425;50.316;8.114;2023-08-21T05:30:00;21.3;;;18.1;;
12721;SDS011;6425;50.316;8.114;2023-08-21T05:33:00;21.3;;;18.1;;
12721;SDS011;6425;50.316;8.114;2023-08-21T05:36:00;19.5;;;16.5;;
12721;SDS011;6425;50.316;8.114;2023-08-21T05:39:01;19.5;;;16.5;;
12721;SDS011;6425;50.316;8.114;2023-08-21T05:42:00;16.8;;;14.1;;
12721;SDS011;6425;50.316;8.114;2023-08-21T05:45:00;18.3;;;14.1;;
12721;SDS011;6425;50.316;8.114;2023-08-21T05:48:00;18.3;;;14.1;;
12721;SDS011;6425;50.316;8.114;2023-08-21T05:51:00;16.3;;;14.4;;
12721;SDS011;6425;50.316;8.114;2023-08-21T05:54:00;16.3;;;14.4;;
12721;SDS011;6425;50.316;8.114;2023-08-21T05:57:00;22.9;;;16.5;;
12721;SDS011;6425;50.316;8.114;2023-08-21T06:00:00;15.4;;;13.8;;
12721;SDS011;6425;50.316;8.114;2023-08-21T06:03:00;15.4;;;13.8;;
12721;SDS011;6425;50.316;8.114;2023-08-21T06:06:00;16.4;;;14.1;;
12721;SDS011;6425;50.316;8.114;2023-08-21T06:09:00;16.4;;;14.1;;
12721;SDS011;6425;50.316;8.114;2023-08-21T06:12:00;18.9;;;14.6;;
12721;SDS011;6425;50.316;8.114;2023-08-21T06:15:00;18;;;16.2;;
12721;SDS011;6425;50.316;8.114;2023-08-21T06:18:00;18;;;16.2;;
12721;SDS011;6425;50.316;8.114;2023-08-21T06:21:00;19;;;17;;
12721;SDS011;6425;50.316;8.114;2023-08-21T06:24:00;19;;;17;;
12721;SDS011;6425;50.316;8.114;2023-08-21T06:27:00;18.2;;;16.4;;
12721;SDS011;6425;50.316;8.114;2023-08-21T06:30:00;18.6;;;16.6;;
12721;SDS011;6425;50.316;8.114;2023-08-21T06:33:00;18.6;;;16.6;;
12721;SDS011;6425;50.316;8.114;2023-08-21T06:36:00;21.5;;;19.1;;
12721;SDS011;6425;50.316;8.114;2023-08-21T06:39:00;21.5;;;19.1;;
12721;SDS011;6425;50.316;8.114;2023-08-21T06:42:00;21;;;18.9;;
12721;SDS011;6425;50.316;8.114;2023-08-21T06:45:00;22.3;;;18.9;;
12721;SDS011;6425;50.316;8.114;2023-08-21T06:48:00;22.3;;;18.9;;
12721;SDS011;6425;50.316;8.114;2023-08-21T06:51:00;22.6;;;18;;
12721;SDS011;6425;50.316;8.114;2023-08-21T06:54:00;22.6;;;18;;
12721;SDS011;6425;50.316;8.114;2023-08-21T06:57:00;19;;;17;;
12721;SDS011;6425;50.316;8.114;2023-08-21T07:00:00;19;;;17;;
12721;SDS011;6425;50.316;8.114;2023-08-21T07:03:00;19;;;17;;
12721;SDS011;6425;50.316;8.114;2023-08-21T07:06:00;17.8;;;15.4;;
12721;SDS011;6425;50.316;8.114;2023-08-21T07:09:00;17.8;;;15.4;;
12721;SDS011;6425;50.316;8.114;2023-08-21T07:12:00;17.7;;;14.9;;
12721;SDS011;6425;50.316;8.114;2023-08-21T07:15:00;16.2;;;14.5;;
12721;SDS011;6425;50.316;8.114;2023-08-21T07:18:00;16.2;;;14.5;;
12721;SDS011;6425;50.316;8.114;2023-08-21T07:21:00;16.5;;;14.8;;
12721;SDS011;6425;50.316;8.114;2023-08-21T07:24:00;16.5;;;14.8;;
12721;SDS011;6425;50.316;8.114;2023-08-21T07:27:00;19.1;;;15.6;;
12721;SDS011;6425;50.316;8.114;2023-08-21T07:30:00;15.1;;;13.1;;
12721;SDS011;6425;50.316;8.114;2023-08-21T07:33:00;15.1;;;13.1;;
12721;SDS011;6425;50.316;8.114;2023-08-21T07:36:00;16.3;;;13.3;;
12721;SDS011;6425;50.316;8.114;2023-08-21T07:39:00;16.3;;;13.3;;
12721;SDS011;6425;50.316;8.114;2023-08-21T07:42:00;16.7;;;13.3;;
12721;SDS011;6425;50.316;8.114;2023-08-21T07:45:00;15.1;;;13.5;;
12721;SDS011;6425;50.316;8.114;2023-08-21T07:48:00;15.1;;;13.5;;
12721;SDS011;6425;50.316;8.114;2023-08-21T07:51:00;16.8;;;14.6;;
12721;SDS011;6425;50.316;8.114;2023-08-21T07:54:00;16.8;;;14.6;;
12721;SDS011;6425;50.316;8.114;2023-08-21T07:57:00;15.5;;;13.4;;
12721;SDS011;6425;50.316;8.114;2023-08-21T08:00:00;14.6;;;12.5;;
12721;SDS011;6425;50.316;8.114;2023-08-21T08:03:00;14.6;;;12.5;;
12721;SDS011;6425;50.316;8.114;2023-08-21T08:06:00;18.1;;;13.4;;
12721;SDS011;6425;50.316;8.114;2023-08-21T08:09:00;18.1;;;13.4;;
12721;SDS011;6425;50.316;8.114;2023-08-21T08:12:00;14.4;;;12.9;;
12721;SDS011;6425;50.316;8.114;2023-08-21T08:15:00;16.2;;;13.8;;
12721;SDS011;6425;50.316;8.114;2023-08-21T08:18:00;16.2;;;13.8;;
12721;SDS011;6425;50.316;8.114;2023-08-21T08:21:00;13.4;;;12;;
12721;SDS011;6425;50.316;8.114;2023-08-21T08:24:00;13.4;;;12;;
12721;SDS011;6425;50.316;8.114;2023-08-21T08:27:00;13.3;;;12.1;;
12721;SDS011;6425;50.316;8.114;2023-08-21T08:30:00;13.5;;;11.6;;
12721;SDS011;6425;50.316;8.114;2023-08-21T08:33:00;13.5;;;11.6;;
12721;SDS011;6425;50.316;8.114;2023-08-21T08:36:00;13.7;;;11.8;;
12721;SDS011;6425;50.316;8.114;2023-08-21T08:39:00;13.6;;;11.8;;
12721;SDS011;6425;50.316;8.114;2023-08-21T08:42:02;13.4;;;12;;
12721;SDS011;6425;50.316;8.114;2023-08-21T08:45:00;14.1;;;12.5;;
12721;SDS011;6425;50.316;8.114;2023-08-21T08:48:00;14.1;;;12.5;;
12721;SDS011;6425;50.316;8.114;2023-08-21T08:51:00;12.9;;;11.3;;
12721;SDS011;6425;50.316;8.114;2023-08-21T08:54:00;13.2;;;11;;
12721;SDS011;6425;50.316;8.114;2023-08-21T08:57:00;14.1;;;10.4;;
12721;SDS011;6425;50.316;8.114;2023-08-21T09:00:00;12.3;;;11;;
12721;SDS011;6425;50.316;8.114;2023-08-21T09:03:00;12.3;;;11;;
12721;SDS011;6425;50.316;8.114;2023-08-21T09:06:00;12.1;;;10.8;;
12721;SDS011;6425;50.316;8.114;2023-08-21T09:09:00;12.3;;;11;;
12721;SDS011;6425;50.316;8.114;2023-08-21T09:12:00;12.6;;;11.3;;
12721;SDS011;6425;50.316;8.114;2023-08-21T09:15:00;12.2;;;10.9;;
12721;SDS011;6425;50.316;8.114;2023-08-21T09:18:00;12.2;;;10.9;;
12721;SDS011;6425;50.316;8.114;2023-08-21T09:21:01;14.5;;;12.1;;
12721;SDS011;6425;50.316;8.114;2023-08-21T09:24:00;14.2;;;10;;
12721;SDS011;6425;50.316;8.114;2023-08-21T09:27:00;14.1;;;9.4;;
12721;SDS011;6425;50.316;8.114;2023-08-21T09:30:00;9;;;8.1;;
12721;SDS011;6425;50.316;8.114;2023-08-21T09:33:00;9;;;8.1;;
12721;SDS011;6425;50.316;8.114;2023-08-21T09:36:00;9.6;;;8.6;;
12721;SDS011;6425;50.316;8.114;2023-08-21T09:39:00;9.6;;;8.6;;
12721;SDS011;6425;50.316;8.114;2023-08-21T09:42:00;9.7;;;8.7;;
12721;SDS011;6425;50.316;8.114;2023-08-21T09:45:00;8.5;;;7.7;;
12721;SDS011;6425;50.316;8.114;2023-08-21T09:48:00;8.5;;;7.7;;
12721;SDS011;6425;50.316;8.114;2023-08-21T09:51:00;10.2;;;7.1;;
12721;SDS011;6425;50.316;8.114;2023-08-21T09:54:00;8.8;;;7.4;;
12721;SDS011;6425;50.316;8.114;2023-08-21T09:57:00;8.4;;;7.6;;
12721;SDS011;6425;50.316;8.114;2023-08-21T10:00:00;9.3;;;7.3;;
12721;SDS011;6425;50.316;8.114;2023-08-21T10:03:00;9.3;;;7.3;;
12721;SDS011;6425;50.316;8.114;2023-08-21T10:06:00;9.8;;;8;;
12721;SDS011;6425;50.316;8.114;2023-08-21T10:09:00;7.7;;;6.1;;
12721;SDS011;6425;50.316;8.114;2023-08-21T10:12:00;7.7;;;6.1;;
12721;SDS011;6425;50.316;8.114;2023-08-21T10:15:00;8.2;;;6.2;;
12721;SDS011;6425;50.316;8.114;2023-08-21T10:18:07;8.2;;;6.2;;
12721;SDS011;6425;50.316;8.114;2023-08-21T10:21:16;6.2;;;5.5;;
12721;SDS011;6425;50.316;8.114;2023-08-21T10:24:00;5.7;;;5.2;;
12721;SDS011;6425;50.316;8.114;2023-08-21T10:27:00;5.7;;;5.2;;
12721;SDS011;6425;50.316;8.114;2023-08-21T10:30:00;10.2;;;5.8;;
12721;SDS011;6425;50.316;8.114;2023-08-21T10:33:00;10.2;;;5.8;;
12721;SDS011;6425;50.316;8.114;2023-08-21T10:36:00;9.6;;;5.8;;
12721;SDS011;6425;50.316;8.114;2023-08-21T10:39:00;5.4;;;4.9;;
12721;SDS011;6425;50.316;8.114;2023-08-21T10:42:01;5.4;;;4.9;;
12721;SDS011;6425;50.316;8.114;2023-08-21T10:45:02;5.7;;;5.1;;
12721;SDS011;6425;50.316;8.114;2023-08-21T10:48:00;5.7;;;5.1;;
12721;SDS011;6425;50.316;8.114;2023-08-21T10:51:00;8.7;;;5.3;;
12721;SDS011;6425;50.316;8.114;2023-08-21T10:54:10;8.1;;;5.4;;
12721;SDS011;6425;50.316;8.114;2023-08-21T10:57:01;8.1;;;5.4;;
12721;SDS011;6425;50.316;8.114;2023-08-21T11:00:00;5.4;;;4.9;;
12721;SDS011;6425;50.316;8.114;2023-08-21T11:03:00;5.4;;;4.9;;
12721;SDS011;6425;50.316;8.114;2023-08-21T11:06:00;5.1;;;3.4;;
12721;SDS011;6425;50.316;8.114;2023-08-21T11:09:00;4.1;;;3.7;;
12721;SDS011;6425;50.316;8.114;2023-08-21T11:12:04;4.1;;;3.7;;
12721;SDS011;6425;50.316;8.114;2023-08-21T11:15:01;3.9;;;3.5;;
12721;SDS011;6425;50.316;8.114;2023-08-21T11:18:00;3.9;;;3.5;;
12721;SDS011;6425;50.316;8.114;2023-08-21T11:21:04;3.9;;;3.6;;
12721;SDS011;6425;50.316;8.114;2023-08-21T11:24:00;7;;;3.8;;
12721;SDS011;6425;50.316;8.114;2023-08-21T11:27:00;7;;;3.8;;
12721;SDS011;6425;50.316;8.114;2023-08-21T11:30:00;5.1;;;4;;
12721;SDS011;6425;50.316;8.114;2023-08-21T11:33:08;5.1;;;4;;
12721;SDS011;6425;50.316;8.114;2023-08-21T11:36:00;2.9;;;2.6;;
12721;SDS011;6425;50.316;8.114;2023-08-21T11:39:00;3.8;;;2.6;;
12721;SDS011;6425;50.316;8.114;2023-08-21T11:42:00;3.8;;;2.6;;
12721;SDS011;6425;50.316;8.114;2023-08-21T11:45:00;3.7;;;2;;
12721;SDS011;6425;50.316;8.114;2023-08-21T11:48:00;3.7;;;2;;
12721;SDS011;6425;50.316;8.114;2023-08-21T11:51:00;4.1;;;1.9;;
12721;SDS011;6425;50.316;8.114;2023-08-21T11:54:00;2.6;;;1.5;;
12721;SDS011;6425;50.316;8.114;2023-08-21T11:57:03;2.6;;;1.5;;
12721;SDS011;6425;50.316;8.114;2023-08-21T12:00:00;3.7;;;2;;
12721;SDS011;6425;50.316;8.114;2023-08-21T12:03:00;3.7;;;2;;
12721;SDS011;6425;50.316;8.114;2023-08-21T12:06:00;3.8;;;1.8;;
12721;SDS011;6425;50.316;8.114;2023-08-21T12:09:00;15.7;;;3.2;;
12721;SDS011;6425;50.316;8.114;2023-08-21T12:12:00;15.7;;;3.2;;
12721;SDS011;6425;50.316;8.114;2023-08-21T12:15:00;2.7;;;2.2;;
12721;SDS011;6425;50.316;8.114;2023-08-21T12:18:00;2.7;;;2.2;;
12721;SDS011;6425;50.316;8.114;2023-08-21T12:21:00;2.4;;;2;;
12721;SDS011;6425;50.316;8.114;2023-08-21T12:24:00;2.9;;;2;;
12721;SDS011;6425;50.316;8.114;2023-08-21T12:27:00;2.9;;;2;;
12721;SDS011;6425;50.316;8.114;2023-08-21T12:30:00;6.1;;;2.3;;
12721;SDS011;6425;50.316;8.114;2023-08-21T12:33:00;6.1;;;2.3;;
12721;SDS011;6425;50.316;8.114;2023-08-21T12:36:00;2.9;;;2.3;;
12721;SDS011;6425;50.316;8.114;2023-08-21T12:39:00;8.8;;;3;;
12721;SDS011;6425;50.316;8.114;2023-08-21T12:42:00;8.8;;;3;;
12721;SDS011;6425;50.316;8.114;2023-08-21T12:45:00;2.9;;;2.6;;
12721;SDS011;6425;50.316;8.114;2023-08-21T12:48:00;2.9;;;2.6;;
12721;SDS011;6425;50.316;8.114;2023-08-21T12:51:01;3.2;;;2.4;;
12721;SDS011;6425;50.316;8.114;2023-08-21T12:54:00;3.9;;;2.5;;
12721;SDS011;6425;50.316;8.114;2023-08-21T12:57:00;3.9;;;2.5;;
12721;SDS011;6425;50.316;8.114;2023-08-21T13:00:00;4.1;;;2.9;;
12721;SDS011;6425;50.316;8.114;2023-08-21T13:03:00;4.1;;;2.9;;
12721;SDS011;6425;50.316;8.114;2023-08-21T13:06:00;3.2;;;2.8;;
12721;SDS011;6425;50.316;8.114;2023-08-21T13:09:00;3;;;2.7;;
12721;SDS011;6425;50.316;8.114;2023-08-21T13:12:00;3;;;2.7;;
12721;SDS011;6425;50.316;8.114;2023-08-21T13:15:00;4.4;;;3;;
12721;SDS011;6425;50.316;8.114;2023-08-21T13:18:00;4.4;;;3;;
12721;SDS011;6425;50.316;8.114;2023-08-21T13:21:00;4.8;;;3.2;;
12721;SDS011;6425;50.316;8.114;2023-08-21T13:24:00;5.1;;;3.1;;
12721;SDS011;6425;50.316;8.114;2023-08-21T13:27:00;5.2;;;3.1;;
12721;SDS011;6425;50.316;8.114;2023-08-21T13:30:00;5.1;;;3;;
12721;SDS011;6425;50.316;8.114;2023-08-21T13:33:00;5.1;;;3;;
12721;SDS011;6425;50.316;8.114;2023-08-21T13:36:00;3.3;;;3;;
12721;SDS011;6425;50.316;8.114;2023-08-21T13:39:00;4.2;;;2.7;;
12721;SDS011;6425;50.316;8.114;2023-08-21T13:42:00;4.5;;;2.7;;
12721;SDS011;6425;50.316;8.114;2023-08-21T13:45:00;4.9;;;2.6;;
12721;SDS011;6425;50.316;8.114;2023-08-21T13:48:00;4.9;;;2.6;;
12721;SDS011;6425;50.316;8.114;2023-08-21T13:51:00;4.3;;;2.9;;
12721;SDS011;6425;50.316;8.114;2023-08-21T13:54:00;3.7;;;2.7;;
12721;SDS011;6425;50.316;8.114;2023-08-21T13:57:00;3.5;;;2.7;;
12721;SDS011;6425;50.316;8.114;2023-08-21T14:00:00;4;;;2.2;;
12721;SDS011;6425;50.316;8.114;2023-08-21T14:03:00;4;;;2.2;;
12721;SDS011;6425;50.316;8.114;2023-08-21T14:06:00;3.1;;;2.4;;
12721;SDS011;6425;50.316;8.114;2023-08-21T14:09:00;3.5;;;2.3;;
12721;SDS011;6425;50.316;8.114;2023-08-21T14:12:00;3.9;;;2.2;;
12721;SDS011;6425;50.316;8.114;2023-08-21T14:15:00;4;;;2.2;;
12721;SDS011;6425;50.316;8.114;2023-08-21T14:18:00;4;;;2.2;;
12721;SDS011;6425;50.316;8.114;2023-08-21T14:21:00;3;;;2.2;;
12721;SDS011;6425;50.316;8.114;2023-08-21T14:24:00;4.2;;;2.3;;
12721;SDS011;6425;50.316;8.114;2023-08-21T14:27:00;5.4;;;2.4;;
12721;SDS011;6425;50.316;8.114;2023-08-21T14:30:00;3.8;;;2.5;;
12721;SDS011;6425;50.316;8.114;2023-08-21T14:33:00;3.8;;;2.5;;
12721;SDS011;6425;50.316;8.114;2023-08-21T14:36:00;3;;;2.3;;
12721;SDS011;6425;50.316;8.114;2023-08-21T14:39:00;3.6;;;2.6;;
12721;SDS011;6425;50.316;8.114;2023-08-21T14:42:00;4.2;;;2.9;;
12721;SDS011;6425;50.316;8.114;2023-08-21T14:45:00;7;;;3.2;;
12721;SDS011;6425;50.316;8.114;2023-08-21T14:48:00;7;;;3.2;;
12721;SDS011;6425;50.316;8.114;2023-08-21T14:51:00;6.5;;;3.1;;
12721;SDS011;6425;50.316;8.114;2023-08-21T14:54:00;5.6;;;3.3;;
12721;SDS011;6425;50.316;8.114;2023-08-21T14:57:00;4.8;;;3.5;;
12721;SDS011;6425;50.316;8.114;2023-08-21T15:00:00;4.6;;;3.3;;
12721;SDS011;6425;50.316;8.114;2023-08-21T15:03:00;4.6;;;3.3;;
12721;SDS011;6425;50.316;8.114;2023-08-21T15:06:00;3.2;;;2.9;;
12721;SDS011;6425;50.316;8.114;2023-08-21T15:09:00;3.3;;;3;;
12721;SDS011;6425;50.316;8.114;2023-08-21T15:12:00;3.4;;;3.1;;
12721;SDS011;6425;50.316;8.114;2023-08-21T15:15:00;4.9;;;3.3;;
12721;SDS011;6425;50.316;8.114;2023-08-21T15:18:00;4.9;;;3.3;;
12721;SDS011;6425;50.316;8.114;2023-08-21T15:21:00;3.7;;;2.9;;
12721;SDS011;6425;50.316;8.114;2023-08-21T15:24:00;4;;;3;;
12721;SDS011;6425;50.316;8.114;2023-08-21T15:27:00;4.3;;;3.2;;
12721;SDS011;6425;50.316;8.114;2023-08-21T15:30:00;5.2;;;3.7;;
12721;SDS011;6425;50.316;8.114;2023-08-21T15:33:00;5.2;;;3.7;;
12721;SDS011;6425;50.316;8.114;2023-08-21T15:36:00;5.6;;;3.5;;
12721;SDS011;6425;50.316;8.114;2023-08-21T15:39:00;5;;;3.6;;
12721;SDS011;6425;50.316;8.114;2023-08-21T15:42:00;4.4;;;3.7;;
12721;SDS011;6425;50.316;8.114;2023-08-21T15:45:00;5.6;;;4;;
12721;SDS011;6425;50.316;8.114;2023-08-21T15:48:00;5.6;;;4;;
12721;SDS011;6425;50.316;8.114;2023-08-21T15:51:00;4.9;;;3.7;;
12721;SDS011;6425;50.316;8.114;2023-08-21T15:54:00;5.4;;;3.6;;
12721;SDS011;6425;50.316;8.114;2023-08-21T15:57:00;6;;;3.6;;
12721;SDS011;6425;50.316;8.114;2023-08-21T16:00:00;5.2;;;4.4;;
12721;SDS011;6425;50.316;8.114;2023-08-21T16:03:00;5.2;;;4.4;;
12721;SDS011;6425;50.316;8.114;2023-08-21T16:06:00;6.6;;;4.5;;
12721;SDS011;6425;50.316;8.114;2023-08-21T16:09:00;6.2;;;4.5;;
12721;SDS011;6425;50.316;8.114;2023-08-21T16:12:00;5.9;;;4.5;;
12721;SDS011;6425;50.316;8.114;2023-08-21T16:15:00;5.4;;;4.9;;
12721;SDS011;6425;50.316;8.114;2023-08-21T16:18:00;5.4;;;4.9;;
12721;SDS011;6425;50.316;8.114;2023-08-21T16:21:00;7.1;;;5.1;;
12721;SDS011;6425;50.316;8.114;2023-08-21T16:24:00;7;;;5.1;;
12721;SDS011;6425;50.316;8.114;2023-08-21T16:27:00;7;;;5.2;;
12721;SDS011;6425;50.316;8.114;2023-08-21T16:30:00;5.3;;;4.8;;
12721;SDS011;6425;50.316;8.114;2023-08-21T16:33:00;5.3;;;4.8;;
12721;SDS011;6425;50.316;8.114;2023-08-21T16:36:00;6.4;;;4.8;;
12721;SDS011;6425;50.316;8.114;2023-08-21T16:39:00;6.2;;;4.9;;
12721;SDS011;6425;50.316;8.114;2023-08-21T16:42:00;6.1;;;5;;
12721;SDS011;6425;50.316;8.114;2023-08-21T16:45:00;6.1;;;5.1;;
12721;SDS011;6425;50.316;8.114;2023-08-21T16:48:00;6.1;;;5.1;;
12721;SDS011;6425;50.316;8.114;2023-08-21T16:51:00;8.6;;;6.8;;
12721;SDS011;6425;50.316;8.114;2023-08-21T16:54:00;8.2;;;6.9;;
12721;SDS011;6425;50.316;8.114;2023-08-21T16:57:00;7.9;;;7.1;;
12721;SDS011;6425;50.316;8.114;2023-08-21T17:00:00;10.4;;;7;;
12721;SDS011;6425;50.316;8.114;2023-08-21T17:03:00;10.4;;;7;;
12721;SDS011;6425;50.316;8.114;2023-08-21T17:06:00;10.2;;;7.4;;
12721;SDS011;6425;50.316;8.114;2023-08-21T17:09:00;8.9;;;7.2;;
12721;SDS011;6425;50.316;8.114;2023-08-21T17:12:00;7.7;;;7;;
12721;SDS011;6425;50.316;8.114;2023-08-21T17:15:00;9.1;;;8.2;;
12721;SDS011;6425;50.316;8.114;2023-08-21T17:18:00;9.1;;;8.2;;
12721;SDS011;6425;50.316;8.114;2023-08-21T17:21:00;8.6;;;7.8;;
12721;SDS011;6425;50.316;8.114;2023-08-21T17:24:00;9.3;;;8.4;;
12721;SDS011;6425;50.316;8.114;2023-08-21T17:27:00;9.6;;;8.7;;
12721;SDS011;6425;50.316;8.114;2023-08-21T17:30:00;9.9;;;8.9;;
12721;SDS011;6425;50.316;8.114;2023-08-21T17:33:00;9.9;;;8.9;;
12721;SDS011;6425;50.316;8.114;2023-08-21T17:36:00;9.8;;;8.9;;
12721;SDS011;6425;50.316;8.114;2023-08-21T17:39:00;9.5;;;8.6;;
12721;SDS011;6425;50.316;8.114;2023-08-21T17:42:00;9.5;;;8.6;;
12721;SDS011;6425;50.316;8.114;2023-08-21T17:45:00;9.1;;;8.2;;
12721;SDS011;6425;50.316;8.114;2023-08-21T17:48:00;9.1;;;8.2;;
12721;SDS011;6425;50.316;8.114;2023-08-21T17:51:00;10.4;;;9.2;;
12721;SDS011;6425;50.316;8.114;2023-08-21T17:54:00;9;;;8.1;;
12721;SDS011;6425;50.316;8.114;2023-08-21T17:57:00;9;;;8.1;;
12721;SDS011;6425;50.316;8.114;2023-08-21T18:00:00;9.7;;;8.8;;
12721;SDS011;6425;50.316;8.114;2023-08-21T18:03:00;9.7;;;8.8;;
12721;SDS011;6425;50.316;8.114;2023-08-21T18:06:00;11;;;8.9;;
12721;SDS011;6425;50.316;8.114;2023-08-21T18:09:00;9.6;;;8.6;;
12721;SDS011;6425;50.316;8.114;2023-08-21T18:12:00;9.6;;;8.6;;
12721;SDS011;6425;50.316;8.114;2023-08-21T18:15:01;9.8;;;8.9;;
12721;SDS011;6425;50.316;8.114;2023-08-21T18:18:00;9.8;;;8.9;;
12721;SDS011;6425;50.316;8.114;2023-08-21T18:21:00;10.1;;;8.7;;
12721;SDS011;6425;50.316;8.114;2023-08-21T18:24:00;10.1;;;8.9;;
12721;SDS011;6425;50.316;8.114;2023-08-21T18:27:00;10.1;;;8.9;;
12721;SDS011;6425;50.316;8.114;2023-08-21T18:30:00;10.5;;;8.6;;
12721;SDS011;6425;50.316;8.114;2023-08-21T18:33:00;10.5;;;8.6;;
12721;SDS011;6425;50.316;8.114;2023-08-21T18:36:00;10.8;;;8.5;;
12721;SDS011;6425;50.316;8.114;2023-08-21T18:39:00;12.9;;;9.3;;
12721;SDS011;6425;50.316;8.114;2023-08-21T18:42:00;12.9;;;9.3;;
12721;SDS011;6425;50.316;8.114;2023-08-21T18:45:00;13.1;;;9.7;;